createdAt,value
2022-12-19T00:02:18.545Z,66.85
2022-12-19T00:05:04.825Z,67.07
2022-12-19T00:07:50.827Z,66.71
2022-12-19T00:10:36.268Z,66.56
2022-12-19T00:13:22.071Z,66.92
2022-12-19T00:16:13.660Z,66.36
2022-12-19T00:19:01.256Z,66.04
2022-12-19T00:21:46.928Z,66.25
2022-12-19T00:24:32.381Z,65.45
2022-12-19T00:27:17.956Z,65.42
2022-12-19T00:30:03.785Z,66.36
2022-12-19T00:32:49.724Z,66.33
2022-12-19T00:35:35.117Z,66.27
2022-12-19T00:38:21.015Z,65.86
2022-12-19T00:41:14.259Z,65.81
2022-12-19T00:44:09.261Z,65.07
2022-12-19T00:46:54.777Z,65.60
2022-12-19T00:49:40.125Z,66.01
2022-12-19T00:52:27.922Z,65.95
2022-12-19T00:55:18.791Z,66.23
2022-12-19T00:58:05.070Z,65.85
2022-12-19T01:00:50.880Z,66.76
2022-12-19T01:03:36.613Z,66.30
2022-12-19T01:06:22.336Z,66.47
2022-12-19T01:09:08.805Z,66.46
2022-12-19T01:12:12.682Z,65.91
2022-12-19T01:15:04.528Z,65.63
2022-12-19T01:17:51.441Z,65.72
2022-12-19T01:20:42.539Z,64.59
2022-12-19T01:23:28.609Z,64.65
2022-12-19T01:26:14.307Z,64.52
2022-12-19T01:28:59.703Z,64.89
2022-12-19T01:31:46.010Z,65.34
2022-12-19T01:34:31.535Z,64.88
2022-12-19T01:37:17.405Z,65.61
2022-12-19T01:40:03.042Z,65.69
2022-12-19T01:42:49.517Z,65.62
2022-12-19T01:45:42.174Z,65.30
2022-12-19T01:48:38.660Z,65.36
2022-12-19T01:51:28.485Z,65.00
2022-12-19T01:54:19.786Z,64.94
2022-12-19T01:57:11.384Z,65.37
2022-12-19T02:00:00.252Z,64.63
2022-12-19T02:02:57.061Z,65.85
2022-12-19T02:05:44.260Z,65.96
2022-12-19T02:08:32.370Z,65.90
2022-12-19T02:11:19.815Z,65.90
2022-12-19T02:14:05.994Z,65.54
2022-12-19T02:17:02.045Z,65.02
2022-12-19T02:20:13.601Z,65.06
2022-12-19T02:23:39.488Z,65.75
2022-12-19T02:27:17.312Z,65.06
2022-12-19T02:30:06.012Z,65.49
2022-12-19T02:32:56.710Z,65.50
2022-12-19T02:35:55.809Z,65.65
2022-12-19T02:39:00.563Z,65.15
2022-12-19T02:41:53.029Z,64.92
2022-12-19T02:44:46.512Z,64.80
2022-12-19T02:47:35.202Z,64.86
2022-12-19T02:50:21.468Z,64.99
2022-12-19T02:53:09.301Z,64.78
2022-12-19T02:56:12.885Z,65.17
2022-12-19T02:59:37.090Z,65.31
2022-12-19T03:02:32.131Z,65.14
2022-12-19T03:05:32.337Z,64.89
2022-12-19T03:08:36.263Z,64.98
2022-12-19T03:11:23.601Z,65.16
2022-12-19T03:14:14.292Z,65.67
2022-12-19T03:17:06.350Z,65.86
2022-12-19T03:19:51.865Z,65.71
2022-12-19T03:22:37.583Z,66.10
2022-12-19T03:25:25.813Z,65.61
2022-12-19T03:28:16.505Z,66.03
2022-12-19T03:31:04.296Z,65.85
2022-12-19T03:33:55.923Z,65.97
2022-12-19T03:36:47.009Z,66.39
2022-12-19T03:39:34.513Z,66.16
2022-12-19T03:42:41.864Z,65.93
2022-12-19T03:45:41.265Z,65.83
2022-12-19T03:48:49.976Z,66.08
2022-12-19T03:51:39.467Z,66.80
2022-12-19T03:54:27.642Z,66.63
2022-12-19T03:57:21.214Z,65.91
2022-12-19T04:00:12.860Z,66.05
2022-12-19T04:03:00.142Z,66.36
2022-12-19T04:05:47.986Z,66.67
2022-12-19T04:08:35.342Z,66.23
2022-12-19T04:11:21.277Z,66.95
2022-12-19T04:14:13.798Z,66.96
2022-12-19T04:17:06.897Z,67.46
2022-12-19T04:19:58.350Z,67.83
2022-12-19T04:22:49.993Z,67.61
2022-12-19T04:25:39.191Z,67.50
2022-12-19T04:28:38.513Z,67.95
2022-12-19T04:31:24.673Z,68.21
2022-12-19T04:34:10.379Z,68.02
2022-12-19T04:36:55.787Z,68.55
2022-12-19T04:39:41.168Z,68.27
2022-12-19T04:42:26.609Z,68.20
2022-12-19T04:45:12.076Z,68.40
2022-12-19T04:47:57.584Z,68.47
2022-12-19T04:50:43.156Z,68.68
2022-12-19T04:53:29.083Z,68.61
2022-12-19T04:56:15.037Z,68.56
2022-12-19T04:59:00.907Z,69.26
2022-12-19T05:01:47.085Z,68.67
2022-12-19T05:08:53.042Z,68.96
2022-12-19T05:11:38.998Z,68.86
2022-12-19T05:14:24.583Z,68.64
2022-12-19T05:17:09.918Z,68.47
2022-12-19T05:19:55.498Z,68.66
2022-12-19T05:22:40.799Z,68.36
2022-12-19T05:25:26.616Z,68.46
2022-12-19T05:28:12.814Z,68.56
2022-12-19T05:31:04.846Z,69.06
2022-12-19T05:33:50.771Z,68.82
2022-12-19T05:36:36.365Z,68.42
2022-12-19T05:39:21.739Z,68.40
2022-12-19T05:42:10.966Z,68.69
2022-12-19T05:44:57.995Z,68.58
2022-12-19T05:47:46.813Z,68.21
2022-12-19T05:50:32.854Z,69.00
2022-12-19T05:53:28.654Z,68.91
2022-12-19T05:56:18.545Z,68.64
2022-12-19T05:59:04.383Z,68.63
2022-12-19T06:01:54.131Z,68.83
2022-12-19T06:04:48.512Z,68.56
2022-12-19T06:07:46.006Z,68.15
2022-12-19T06:10:38.529Z,68.22
2022-12-19T06:13:25.207Z,68.66
2022-12-19T06:16:13.935Z,68.55
2022-12-19T06:18:59.779Z,68.44
2022-12-19T06:21:48.112Z,68.17
2022-12-19T06:24:34.461Z,68.33
2022-12-19T06:27:20.057Z,68.63
2022-12-19T06:30:06.194Z,68.53
2022-12-19T06:32:55.909Z,68.24
2022-12-19T06:35:42.175Z,67.64
2022-12-19T06:38:28.723Z,67.45
2022-12-19T06:41:33.331Z,68.15
2022-12-19T06:44:18.914Z,67.79
2022-12-19T06:47:04.439Z,67.87
2022-12-19T06:49:50.348Z,68.28
2022-12-19T06:52:36.174Z,67.66
2022-12-19T06:55:21.955Z,67.64
2022-12-19T06:58:07.585Z,67.77
2022-12-19T07:00:54.008Z,68.27
2022-12-19T07:03:41.707Z,68.20
2022-12-19T07:06:28.263Z,67.96
2022-12-19T07:09:13.909Z,68.14
2022-12-19T07:11:59.397Z,68.00
2022-12-19T07:14:48.950Z,67.26
2022-12-19T07:17:38.592Z,67.59
2022-12-19T07:20:24.535Z,67.28
2022-12-19T07:23:14.779Z,67.20
2022-12-19T07:26:01.219Z,67.05
2022-12-19T07:28:46.893Z,66.56
2022-12-19T07:31:32.695Z,66.93
2022-12-19T07:34:18.550Z,66.34
2022-12-19T07:37:04.040Z,65.51
2022-12-19T07:39:49.379Z,65.58
2022-12-19T07:42:35.372Z,66.04
2022-12-19T07:45:21.081Z,65.46
2022-12-19T07:48:07.887Z,65.38
2022-12-19T07:50:53.655Z,65.68
2022-12-19T07:53:39.147Z,65.34
2022-12-19T07:56:24.489Z,66.03
2022-12-19T07:59:10.112Z,66.02
2022-12-19T08:01:55.792Z,66.13
2022-12-19T08:04:41.838Z,65.93
2022-12-19T08:07:27.662Z,65.65
2022-12-19T08:10:15.043Z,65.26
2022-12-19T08:13:00.915Z,65.75
2022-12-19T08:15:46.398Z,65.28
2022-12-19T08:18:32.084Z,65.67
2022-12-19T08:21:17.727Z,65.26
2022-12-19T08:24:03.716Z,64.79
2022-12-19T08:26:49.381Z,65.44
2022-12-19T08:29:35.587Z,65.74
2022-12-19T08:32:22.057Z,66.30
2022-12-19T08:35:08.333Z,66.30
2022-12-19T08:37:54.613Z,66.42
2022-12-19T08:40:44.256Z,65.88
2022-12-19T08:43:33.293Z,66.45
2022-12-19T08:46:20.689Z,65.99
2022-12-19T08:49:06.177Z,67.21
2022-12-19T08:51:51.956Z,66.39
2022-12-19T08:54:37.554Z,66.67
2022-12-19T08:57:23.417Z,67.19
2022-12-19T09:00:09.865Z,66.93
2022-12-19T09:02:56.685Z,66.74
2022-12-19T09:06:03.515Z,66.31
2022-12-19T09:08:48.072Z,66.85
2022-12-19T09:11:33.730Z,67.14
2022-12-19T09:14:21.773Z,67.64
2022-12-19T09:17:07.588Z,67.00
2022-12-19T09:19:52.797Z,67.14
2022-12-19T09:22:38.381Z,67.31
2022-12-19T09:25:23.997Z,66.96
2022-12-19T09:28:27.624Z,66.09
2022-12-19T09:31:16.403Z,66.15
2022-12-19T09:34:02.235Z,66.34
2022-12-19T09:36:47.781Z,65.85
2022-12-19T09:39:34.312Z,66.51
2022-12-19T09:42:41.885Z,66.58
2022-12-19T09:45:57.546Z,66.84
2022-12-19T09:48:46.940Z,67.26
2022-12-19T09:51:44.249Z,66.84
2022-12-19T09:54:43.772Z,67.55
2022-12-19T09:57:29.441Z,66.65
2022-12-19T10:00:21.418Z,67.00
2022-12-19T10:03:40.998Z,67.69
2022-12-19T10:07:21.175Z,67.76
2022-12-19T10:11:38.652Z,67.83
2022-12-19T10:12:51.125Z,67.82
2022-12-19T10:15:58.970Z,68.05
2022-12-19T10:18:48.415Z,67.93
2022-12-19T10:25:12.630Z,67.45
2022-12-19T10:28:20.911Z,67.35
2022-12-19T10:31:28.506Z,68.07
2022-12-19T10:34:19.789Z,67.75
2022-12-19T10:37:28.883Z,68.08
2022-12-19T10:40:29.045Z,68.43
2022-12-19T10:43:33.603Z,67.72
2022-12-19T10:46:29.454Z,67.78
2022-12-19T10:49:19.447Z,67.96
2022-12-19T10:52:08.064Z,67.52
2022-12-19T10:54:53.832Z,67.62
2022-12-19T10:57:39.135Z,67.99
2022-12-19T11:00:27.771Z,67.50
2022-12-19T11:03:19.126Z,67.62
2022-12-19T11:06:06.735Z,68.20
2022-12-19T11:08:52.296Z,68.09
2022-12-19T11:16:09.568Z,68.62
2022-12-19T11:19:18.928Z,67.17
2022-12-19T11:29:15.045Z,68.28
2022-12-19T11:29:26.455Z,68.12
2022-12-19T11:29:34.917Z,67.40
2022-12-19T11:30:41.736Z,67.95
2022-12-19T11:34:23.791Z,68.08
2022-12-19T11:37:22.061Z,67.55
2022-12-19T11:40:20.760Z,67.04
2022-12-19T11:46:28.339Z,67.11
2022-12-19T11:49:30.590Z,67.68
2022-12-19T11:53:02.876Z,67.70
2022-12-19T11:55:40.838Z,67.60
2022-12-19T11:58:31.159Z,67.64
2022-12-19T12:01:35.474Z,67.57
2022-12-19T12:04:27.385Z,66.65
2022-12-19T12:07:28.371Z,66.98
2022-12-19T12:14:57.158Z,67.46
2022-12-19T12:25:17.456Z,67.17
2022-12-19T12:31:00.019Z,67.36
2022-12-19T12:31:04.120Z,66.64
2022-12-19T12:31:44.957Z,66.89
2022-12-19T12:32:04.827Z,65.50
2022-12-19T12:32:04.979Z,65.98
2022-12-19T12:35:56.638Z,65.67
2022-12-19T12:40:31.749Z,65.25
2022-12-19T12:43:39.690Z,66.06
2022-12-19T12:46:34.918Z,65.10
2022-12-19T12:49:43.286Z,65.19
2022-12-19T12:52:39.272Z,64.99
2022-12-19T12:55:29.931Z,65.09
2022-12-19T12:58:44.652Z,65.06
2022-12-19T13:01:33.599Z,65.30
2022-12-19T13:04:53.963Z,65.37
2022-12-19T13:07:51.629Z,65.75
2022-12-19T13:10:37.343Z,65.64
2022-12-19T13:13:49.422Z,65.95
2022-12-19T13:16:44.065Z,65.30
2022-12-19T13:19:37.923Z,65.67
2022-12-19T13:22:29.364Z,65.48
2022-12-19T13:25:27.200Z,65.44
2022-12-19T13:28:39.630Z,66.48
2022-12-19T13:31:25.896Z,66.12
2022-12-19T13:34:18.495Z,65.55
2022-12-19T13:39:55.160Z,64.85
2022-12-19T13:40:33.579Z,65.27
2022-12-19T13:43:42.711Z,65.60
2022-12-19T13:46:44.663Z,65.30
2022-12-19T13:49:34.487Z,65.63
2022-12-19T13:52:23.112Z,66.40
2022-12-19T13:55:15.876Z,66.40
2022-12-19T13:58:04.680Z,65.86
2022-12-19T14:00:53.959Z,66.28
2022-12-19T14:03:43.759Z,66.40
2022-12-19T14:06:41.421Z,66.73
2022-12-19T14:11:32.792Z,67.47
2022-12-19T14:13:51.502Z,66.96
2022-12-19T14:16:17.492Z,67.50
2022-12-19T14:19:03.661Z,67.49
2022-12-19T14:22:11.160Z,68.04
2022-12-19T14:25:50.165Z,67.15
2022-12-19T14:28:24.526Z,67.80
2022-12-19T14:31:19.330Z,68.09
2022-12-19T14:34:43.166Z,68.28
2022-12-19T14:39:25.665Z,67.22
2022-12-19T14:41:00.169Z,67.35
2022-12-19T14:43:56.627Z,68.21
2022-12-19T14:52:25.239Z,67.86
2022-12-19T14:54:03.654Z,68.02
2022-12-19T14:54:29.064Z,67.93
2022-12-19T14:56:57.665Z,68.10
2022-12-19T14:59:46.199Z,67.65
2022-12-19T15:02:33.866Z,67.67
2022-12-19T15:05:21.381Z,68.40
2022-12-19T15:08:10.634Z,67.83
2022-12-19T15:11:44.476Z,68.19
2022-12-19T15:14:56.803Z,68.97
2022-12-19T15:17:48.684Z,68.59
2022-12-19T15:20:35.856Z,69.15
2022-12-19T15:23:22.925Z,68.88
2022-12-19T15:26:14.489Z,69.13
2022-12-19T15:29:00.355Z,69.07
2022-12-19T15:31:46.133Z,68.37
2022-12-19T15:34:41.879Z,69.22
2022-12-19T15:37:32.167Z,68.51
2022-12-19T15:40:18.727Z,68.39
2022-12-19T15:43:05.076Z,68.58
2022-12-19T15:45:57.911Z,69.21
2022-12-19T15:48:48.605Z,69.19
2022-12-19T15:51:33.971Z,70.21
2022-12-19T15:54:47.843Z,69.71
2022-12-19T15:57:36.703Z,70.28
2022-12-19T16:00:27.682Z,69.73
2022-12-19T16:03:23.902Z,70.83
2022-12-19T16:06:14.670Z,70.55
2022-12-19T16:09:00.371Z,69.92
2022-12-19T16:11:46.574Z,70.14
2022-12-19T16:14:31.983Z,69.95
2022-12-19T16:17:22.836Z,69.96
2022-12-19T16:20:17.204Z,70.14
2022-12-19T16:23:02.727Z,70.15
2022-12-19T16:25:53.666Z,70.03
2022-12-19T16:28:39.067Z,69.60
2022-12-19T16:31:26.462Z,69.36
2022-12-19T16:34:21.636Z,69.64
2022-12-19T16:37:07.176Z,69.08
2022-12-19T16:39:52.910Z,69.01
2022-12-19T16:42:39.470Z,68.85
2022-12-19T16:45:26.480Z,68.74
2022-12-19T16:48:19.899Z,69.10
2022-12-19T16:51:06.471Z,68.74
2022-12-19T16:53:54.692Z,69.38
2022-12-19T16:56:52.791Z,69.31
2022-12-19T16:59:40.369Z,69.28
2022-12-19T17:02:32.367Z,70.14
2022-12-19T17:05:29.878Z,69.68
2022-12-19T17:08:15.427Z,69.30
2022-12-19T17:11:01.154Z,69.75
2022-12-19T17:13:50.542Z,69.40
2022-12-19T17:16:37.326Z,69.67
2022-12-19T17:19:26.029Z,69.59
2022-12-19T17:22:13.665Z,69.89
2022-12-19T17:24:59.743Z,70.47
2022-12-19T17:27:45.905Z,70.38
2022-12-19T17:30:31.687Z,70.44
2022-12-19T17:33:18.619Z,69.82
2022-12-19T17:36:06.642Z,69.98
2022-12-19T17:38:52.366Z,69.89
2022-12-19T17:41:38.002Z,69.79
2022-12-19T17:44:24.021Z,69.41
2022-12-19T17:47:19.185Z,70.06
2022-12-19T17:50:05.743Z,70.14
2022-12-19T17:52:53.424Z,70.10
2022-12-19T17:55:41.943Z,69.93
2022-12-19T17:58:29.843Z,70.12
2022-12-19T18:01:24.579Z,70.03
2022-12-19T18:04:15.902Z,70.60
2022-12-19T18:07:02.744Z,71.05
2022-12-19T18:09:48.577Z,70.55
2022-12-19T18:12:34.592Z,70.62
2022-12-19T18:15:22.297Z,70.79
2022-12-19T18:18:13.869Z,70.04
2022-12-19T18:21:02.421Z,70.54
2022-12-19T18:23:48.855Z,71.48
2022-12-19T18:26:34.649Z,71.96
2022-12-19T18:29:19.827Z,71.66
2022-12-19T18:32:05.526Z,70.36
2022-12-19T18:34:52.517Z,70.35
2022-12-19T18:37:42.314Z,69.57
2022-12-19T18:40:31.548Z,69.98
2022-12-19T18:43:19.240Z,69.56
2022-12-19T18:46:05.531Z,70.03
2022-12-19T18:48:51.713Z,70.42
2022-12-19T18:51:38.098Z,70.03
2022-12-19T18:54:23.890Z,70.73
2022-12-19T18:57:09.636Z,70.63
2022-12-19T18:59:55.479Z,70.61
2022-12-19T19:02:47.257Z,70.79
2022-12-19T19:05:36.117Z,70.69
2022-12-19T19:08:30.589Z,70.97
2022-12-19T19:11:35.151Z,71.05
2022-12-19T19:14:20.612Z,70.66
2022-12-19T19:17:07.026Z,71.16
2022-12-19T19:19:52.608Z,71.25
2022-12-19T19:22:38.303Z,70.72
2022-12-19T19:25:24.793Z,71.47
2022-12-19T19:28:10.766Z,71.87
2022-12-19T19:30:57.987Z,72.22
2022-12-19T19:33:50.965Z,72.49
2022-12-19T19:36:41.074Z,73.03
2022-12-19T19:39:32.910Z,72.57
2022-12-19T19:42:19.101Z,73.17
2022-12-19T19:45:06.107Z,72.57
2022-12-19T19:47:51.999Z,71.98
2022-12-19T19:50:38.119Z,71.97
2022-12-19T19:53:23.679Z,71.94
2022-12-19T19:56:09.602Z,71.89
2022-12-19T19:58:55.429Z,71.61
2022-12-19T20:01:41.288Z,71.99
2022-12-19T20:04:28.198Z,72.02
2022-12-19T20:07:14.492Z,72.39
2022-12-19T20:10:00.564Z,71.79
2022-12-19T20:12:46.827Z,71.57
2022-12-19T20:15:33.378Z,71.76
2022-12-19T20:18:19.004Z,71.88
2022-12-19T20:21:12.286Z,71.52
2022-12-19T20:23:58.972Z,71.96
2022-12-19T20:26:44.577Z,71.51
2022-12-19T20:29:30.549Z,71.57
2022-12-19T20:32:16.332Z,71.78
2022-12-19T20:35:02.031Z,72.57
2022-12-19T20:37:47.613Z,72.99
2022-12-19T20:40:33.383Z,72.45
2022-12-19T20:43:21.400Z,73.12
2022-12-19T20:46:15.013Z,73.71
2022-12-19T20:49:02.429Z,73.05
2022-12-19T20:51:49.799Z,73.12
2022-12-19T20:54:36.733Z,72.99
2022-12-19T20:57:27.955Z,73.44
2022-12-19T21:00:15.223Z,73.78
2022-12-19T21:03:27.200Z,73.87
2022-12-19T21:06:08.329Z,74.01
2022-12-19T21:08:56.169Z,74.47
2022-12-19T21:11:41.909Z,74.40
2022-12-19T21:14:27.457Z,74.14
2022-12-19T21:17:13.173Z,74.24
2022-12-19T21:19:58.794Z,74.80
2022-12-19T21:22:44.627Z,74.46
2022-12-19T21:25:46.425Z,74.79
2022-12-19T21:28:33.330Z,74.36
2022-12-19T21:31:27.594Z,74.45
2022-12-19T21:34:13.281Z,74.20
2022-12-19T21:36:59.537Z,74.85
2022-12-19T21:39:44.919Z,74.51
2022-12-19T21:42:30.406Z,74.97
2022-12-19T21:45:16.375Z,74.41
2022-12-19T21:48:01.931Z,75.28
2022-12-19T21:50:55.611Z,75.28
2022-12-19T21:53:41.311Z,76.02
2022-12-19T21:56:34.243Z,75.58
2022-12-19T21:59:19.509Z,75.86
2022-12-19T22:02:05.131Z,75.87
2022-12-19T22:04:51.178Z,75.27
2022-12-19T22:07:36.477Z,75.27
2022-12-19T22:10:22.574Z,75.45
2022-12-19T22:13:07.895Z,74.90
2022-12-19T22:15:53.498Z,75.11
2022-12-19T22:18:40.908Z,75.03
2022-12-19T22:21:27.071Z,74.99
2022-12-19T22:24:14.269Z,74.77
2022-12-19T22:27:00.192Z,74.79
2022-12-19T22:29:45.636Z,74.86
2022-12-19T22:32:31.567Z,74.79
2022-12-19T22:35:17.227Z,74.84
2022-12-19T22:38:02.714Z,75.05
2022-12-19T22:40:48.263Z,75.27
2022-12-19T22:43:35.671Z,75.19
2022-12-19T22:46:26.376Z,75.16
2022-12-19T22:49:14.191Z,75.01
2022-12-19T22:52:00.264Z,75.00
2022-12-19T22:54:45.737Z,74.54
2022-12-19T22:57:31.249Z,74.91
2022-12-19T23:00:17.370Z,75.02
2022-12-19T23:03:02.962Z,74.52
2022-12-19T23:05:52.115Z,75.07
2022-12-19T23:08:38.680Z,75.51
2022-12-19T23:11:29.487Z,75.07
2022-12-19T23:14:17.075Z,75.16
2022-12-19T23:17:02.639Z,75.25
2022-12-19T23:19:47.929Z,74.81
2022-12-19T23:22:33.323Z,75.48
2022-12-19T23:25:19.120Z,75.44
2022-12-19T23:28:05.192Z,75.67
2022-12-19T23:30:50.876Z,75.67
2022-12-19T23:33:36.519Z,75.50
2022-12-19T23:36:45.066Z,75.69
2022-12-19T23:39:27.567Z,75.69
2022-12-19T23:42:13.057Z,75.39
2022-12-19T23:44:58.496Z,75.75
2022-12-19T23:47:46.675Z,75.81
2022-12-19T23:50:32.211Z,75.94
2022-12-19T23:53:17.757Z,75.80
2022-12-19T23:56:08.171Z,75.89
2022-12-19T23:58:54.783Z,75.84
